Terminal Aerodrome Forecast
Issued by NWS Cleveland, OH

Home | Current Version | Previous Version | Text Only | Print | Product List | Glossary On
Versions: 1 2 3 4 5 6 7 8 9 10 11 12 13 14 15 16 17 18 19 20
000
FTUS41 KCLE 021729
TAFCAK
TAF
KCAK 021729Z 0218/0318 03005KT P6SM SCT015 BKN035
      TEMPO 0218/0220 BKN015
     FM022100 03008KT P6SM SCT035
     FM030100 04004KT P6SM SKC
      TEMPO 0309/0312 4SM BR=

USA.gov is the U.S. government's official web portal to all federal, state and local government web resources and services.